createdAt,value
2017-10-23T00:00:16.639Z,99.90
2017-10-23T00:02:46.986Z,99.90
2017-10-23T00:05:17.391Z,99.90
2017-10-23T00:07:47.774Z,99.90
2017-10-23T00:10:19.203Z,99.90
2017-10-23T00:12:49.639Z,99.90
2017-10-23T00:15:19.948Z,99.90
2017-10-23T00:17:50.506Z,99.90
2017-10-23T00:20:20.834Z,99.90
2017-10-23T00:22:52.304Z,99.90
2017-10-23T00:25:22.904Z,99.90
2017-10-23T00:27:53.551Z,99.90
2017-10-23T00:30:23.920Z,99.90
2017-10-23T00:32:54.829Z,99.90
2017-10-23T00:35:25.323Z,99.90
2017-10-23T00:37:55.727Z,99.90
2017-10-23T00:40:26.102Z,99.90
2017-10-23T00:42:56.740Z,99.90
2017-10-23T00:45:27.155Z,99.90
2017-10-23T00:47:58.295Z,99.90
2017-10-23T00:50:29.516Z,99.90
2017-10-23T00:53:00.596Z,99.90
2017-10-23T00:55:31.298Z,99.90
2017-10-23T00:58:02.806Z,99.90
2017-10-23T01:00:33.915Z,99.90
2017-10-23T01:03:04.231Z,98.80
2017-10-23T01:05:34.558Z,98.40
2017-10-23T01:08:04.993Z,98.50
2017-10-23T01:10:35.289Z,98.20
2017-10-23T01:13:06.726Z,98.10
2017-10-23T01:15:37.318Z,99.10
2017-10-23T01:18:07.733Z,99.00
2017-10-23T01:20:38.495Z,99.20
2017-10-23T01:23:09.721Z,99.90
2017-10-23T01:25:40.149Z,99.90
2017-10-23T01:28:10.907Z,99.90
2017-10-23T01:30:41.198Z,99.60
2017-10-23T01:33:11.538Z,99.90
2017-10-23T01:35:42.040Z,99.90
2017-10-23T01:38:13.179Z,99.90
2017-10-23T01:40:44.011Z,99.90
2017-10-23T01:43:14.422Z,99.90
2017-10-23T01:45:45.740Z,99.90
2017-10-23T01:48:16.108Z,99.90
2017-10-23T01:50:47.292Z,99.90
2017-10-23T01:53:17.585Z,99.90
2017-10-23T01:55:49.018Z,99.90
2017-10-23T01:58:19.335Z,99.90
2017-10-23T02:00:49.855Z,99.90
2017-10-23T02:03:20.414Z,99.90
2017-10-23T02:05:50.578Z,99.90
2017-10-23T02:08:20.698Z,99.90
2017-10-23T02:10:50.887Z,99.90
2017-10-23T02:13:21.033Z,99.90
2017-10-23T02:15:51.217Z,99.90
2017-10-23T02:18:22.040Z,99.90
2017-10-23T02:20:53.392Z,99.90
2017-10-23T02:23:23.543Z,99.90
2017-10-23T02:25:53.675Z,99.90
2017-10-23T02:28:23.780Z,99.90
2017-10-23T02:30:54.027Z,99.90
2017-10-23T02:33:24.415Z,99.90
2017-10-23T02:35:55.297Z,99.90
2017-10-23T02:38:26.423Z,99.90
2017-10-23T02:40:56.907Z,99.90
2017-10-23T02:43:27.347Z,99.90
2017-10-23T02:45:58.832Z,99.90
2017-10-23T02:48:29.262Z,99.90
2017-10-23T02:50:59.728Z,99.90
2017-10-23T02:53:30.534Z,99.90
2017-10-23T02:56:01.535Z,99.90
2017-10-23T02:58:32.700Z,99.90
2017-10-23T03:01:02.980Z,99.90
2017-10-23T03:03:33.295Z,99.90
2017-10-23T03:06:04.191Z,99.90
2017-10-23T03:08:34.600Z,99.90
2017-10-23T03:11:05.232Z,99.90
2017-10-23T03:13:35.618Z,99.90
2017-10-23T03:16:06.769Z,99.90
2017-10-23T03:18:37.219Z,99.90
2017-10-23T03:21:07.609Z,99.90
2017-10-23T03:23:38.546Z,99.90
2017-10-23T03:26:09.812Z,99.90
2017-10-23T03:28:41.642Z,99.90
2017-10-23T03:31:11.793Z,99.90
2017-10-23T03:33:42.754Z,99.90
2017-10-23T03:36:12.981Z,99.90
2017-10-23T03:38:43.707Z,99.90
2017-10-23T03:41:14.121Z,99.90
2017-10-23T03:43:44.299Z,99.90
2017-10-23T03:46:14.527Z,99.90
2017-10-23T03:48:45.534Z,99.90
2017-10-23T03:51:15.666Z,99.90
2017-10-23T03:53:45.800Z,99.90
2017-10-23T03:56:16.984Z,99.90
2017-10-23T03:58:47.070Z,99.90
2017-10-23T04:01:17.193Z,99.90
2017-10-23T04:03:47.492Z,99.90
2017-10-23T04:06:17.669Z,99.90
2017-10-23T04:08:48.576Z,98.60
2017-10-23T04:11:18.800Z,98.60
2017-10-23T04:13:49.883Z,99.60
2017-10-23T04:16:20.015Z,99.60
2017-10-23T04:18:50.199Z,99.90
2017-10-23T04:21:21.111Z,99.20
2017-10-23T04:23:52.163Z,98.80
2017-10-23T04:26:22.375Z,98.80
2017-10-23T04:28:53.336Z,98.60
2017-10-23T04:31:24.729Z,98.60
2017-10-23T04:33:54.886Z,98.60
2017-10-23T04:36:25.056Z,98.50
2017-10-23T04:38:55.503Z,98.90
2017-10-23T04:41:25.662Z,99.90
2017-10-23T04:43:56.638Z,99.90
2017-10-23T04:46:27.159Z,99.90
2017-10-23T04:48:57.374Z,99.90
2017-10-23T04:51:27.579Z,98.20
2017-10-23T04:53:58.879Z,99.40
2017-10-23T04:56:29.371Z,99.40
2017-10-23T04:59:00.314Z,99.90
2017-10-23T05:01:30.801Z,99.90
2017-10-23T05:04:07.833Z,99.90
2017-10-23T05:06:39.117Z,99.20
2017-10-23T05:09:09.286Z,99.80
2017-10-23T05:11:40.341Z,98.50
2017-10-23T05:14:10.619Z,98.50
2017-10-23T05:16:40.787Z,97.50
2017-10-23T05:19:11.373Z,98.10
2017-10-23T05:21:41.521Z,98.50
2017-10-23T05:24:12.513Z,99.50
2017-10-23T05:26:42.746Z,99.50
2017-10-23T05:29:12.988Z,99.60
2017-10-23T05:31:43.727Z,99.40
2017-10-23T05:34:15.700Z,99.90
2017-10-23T05:36:46.778Z,99.90
2017-10-23T05:39:18.103Z,99.90
2017-10-23T05:41:49.051Z,99.90
2017-10-23T05:44:19.284Z,99.90
2017-10-23T05:46:49.498Z,99.90
2017-10-23T05:49:19.705Z,98.70
2017-10-23T05:51:50.332Z,99.90
2017-10-23T05:54:20.608Z,99.90
2017-10-23T05:56:52.604Z,99.90
2017-10-23T05:59:22.883Z,99.90
2017-10-23T06:01:53.253Z,99.90
2017-10-23T06:04:23.551Z,99.90
2017-10-23T06:06:53.679Z,99.90
2017-10-23T06:09:24.292Z,99.90
2017-10-23T06:11:54.508Z,99.90
2017-10-23T06:14:24.774Z,99.90
2017-10-23T06:16:55.815Z,99.90
2017-10-23T06:19:26.841Z,99.90
2017-10-23T06:21:56.992Z,99.90
2017-10-23T06:24:27.299Z,99.90
2017-10-23T06:26:57.577Z,99.90
2017-10-23T06:29:28.171Z,99.90
2017-10-23T06:32:00.676Z,99.90
2017-10-23T06:34:31.783Z,99.90
2017-10-23T06:37:02.018Z,99.90
2017-10-23T06:39:32.323Z,99.90
2017-10-23T06:42:02.933Z,99.90
2017-10-23T06:44:35.255Z,99.90
2017-10-23T06:47:08.335Z,99.90
2017-10-23T06:49:38.928Z,99.90
2017-10-23T06:52:10.141Z,99.90
2017-10-23T06:54:40.470Z,99.90
2017-10-23T06:57:11.225Z,99.90
2017-10-23T06:59:41.547Z,99.90
2017-10-23T07:02:11.655Z,99.90
2017-10-23T07:04:42.207Z,99.90
2017-10-23T07:07:13.136Z,99.90
2017-10-23T07:09:43.324Z,99.90
2017-10-23T07:12:13.922Z,99.90
2017-10-23T07:14:44.380Z,99.90
2017-10-23T07:17:14.961Z,99.90
2017-10-23T07:19:47.503Z,99.90
2017-10-23T07:22:17.684Z,99.90
2017-10-23T07:24:47.895Z,99.90
2017-10-23T07:27:18.052Z,99.70
2017-10-23T07:29:48.168Z,99.90
2017-10-23T07:32:18.655Z,99.90
2017-10-23T07:34:48.768Z,99.90
2017-10-23T07:37:19.004Z,99.90
2017-10-23T07:39:50.162Z,99.90
2017-10-23T07:42:20.360Z,99.90
2017-10-23T07:44:50.499Z,99.90
2017-10-23T07:47:20.694Z,99.90
2017-10-23T07:49:51.095Z,99.90
2017-10-23T07:52:21.200Z,99.90
2017-10-23T07:54:51.583Z,99.90
2017-10-23T07:57:22.615Z,99.50
2017-10-23T07:59:52.821Z,99.50
2017-10-23T08:02:23.322Z,99.90
2017-10-23T08:04:53.443Z,99.50
2017-10-23T08:07:23.589Z,98.90
2017-10-23T08:09:54.206Z,99.80
2017-10-23T08:12:24.331Z,99.90
2017-10-23T08:14:54.511Z,99.90
2017-10-23T08:17:24.811Z,99.90
2017-10-23T08:19:55.729Z,99.70
2017-10-23T08:22:25.907Z,99.70
2017-10-23T08:24:56.131Z,98.50
2017-10-23T08:27:26.393Z,98.40
2017-10-23T08:29:56.659Z,99.30
2017-10-23T08:32:27.048Z,99.10
2017-10-23T08:34:57.218Z,99.50
2017-10-23T08:37:27.359Z,99.00
2017-10-23T08:39:57.511Z,99.70
2017-10-23T08:42:27.727Z,97.90
2017-10-23T08:44:57.894Z,97.50
2017-10-23T08:47:28.699Z,98.10
2017-10-23T08:49:59.838Z,96.60
2017-10-23T08:52:30.803Z,96.20
2017-10-23T08:55:00.945Z,96.20
2017-10-23T08:57:31.450Z,95.60
2017-10-23T09:00:01.663Z,95.40
2017-10-23T09:02:32.366Z,96.20
2017-10-23T09:05:02.548Z,95.20
2017-10-23T09:07:33.046Z,96.10
2017-10-23T09:10:03.229Z,95.10
2017-10-23T09:12:33.402Z,96.00
2017-10-23T09:15:03.883Z,95.00
2017-10-23T09:17:35.001Z,93.40
2017-10-23T09:20:05.492Z,93.40
2017-10-23T09:22:37.565Z,94.90
2017-10-23T09:25:08.249Z,95.00
2017-10-23T09:27:38.599Z,93.10
2017-10-23T09:30:09.211Z,95.00
2017-10-23T09:32:41.178Z,94.10
2017-10-23T09:35:12.360Z,94.10
2017-10-23T09:37:42.589Z,93.80
2017-10-23T09:40:13.063Z,93.90
2017-10-23T09:42:43.714Z,93.80
2017-10-23T09:45:13.933Z,95.30
2017-10-23T09:47:44.147Z,96.10
2017-10-23T09:50:15.847Z,95.40
2017-10-23T09:52:46.030Z,95.40
2017-10-23T09:55:16.163Z,96.70
2017-10-23T09:57:47.876Z,96.40
2017-10-23T10:01:37.349Z,96.40
2017-10-23T10:04:07.880Z,97.80
2017-10-23T10:06:38.582Z,98.40
2017-10-23T10:09:09.578Z,98.20
2017-10-23T10:11:39.747Z,98.20
2017-10-23T10:14:09.881Z,98.00
2017-10-23T10:16:40.149Z,98.40
2017-10-23T10:19:10.300Z,99.00
2017-10-23T10:21:40.455Z,99.20
2017-10-23T10:24:10.724Z,98.90
2017-10-23T10:26:41.671Z,99.20
2017-10-23T10:29:12.592Z,99.20
2017-10-23T10:31:42.977Z,99.20
2017-10-23T10:34:13.891Z,99.90
2017-10-23T10:36:44.082Z,99.90
2017-10-23T10:39:15.384Z,99.90
2017-10-23T10:41:45.587Z,99.90
2017-10-23T10:44:15.783Z,99.90
2017-10-23T10:46:47.409Z,98.20
2017-10-23T10:49:18.366Z,99.80
2017-10-23T10:51:49.324Z,98.30
2017-10-23T10:54:21.026Z,98.80
2017-10-23T10:56:53.914Z,99.90
2017-10-23T10:59:24.867Z,99.90
2017-10-23T11:01:55.190Z,99.90
2017-10-23T11:04:25.388Z,99.90
2017-10-23T11:06:55.593Z,98.70
2017-10-23T11:09:25.788Z,98.30
2017-10-23T11:11:56.979Z,99.00
2017-10-23T11:14:27.594Z,99.00
2017-10-23T11:16:58.070Z,98.60
2017-10-23T11:19:31.822Z,96.90
2017-10-23T11:22:06.362Z,96.90
2017-10-23T11:24:38.535Z,98.70
2017-10-23T11:27:08.761Z,98.00
2017-10-23T11:29:39.243Z,97.10
2017-10-23T11:32:10.445Z,98.50
2017-10-23T11:34:40.592Z,98.50
2017-10-23T11:37:11.508Z,97.80
2017-10-23T11:39:41.795Z,97.70
2017-10-23T11:42:11.932Z,97.60
2017-10-23T11:44:44.272Z,98.90
2017-10-23T11:47:14.970Z,99.90
2017-10-23T11:49:46.533Z,97.30
2017-10-23T11:52:19.287Z,97.00
2017-10-23T11:54:51.037Z,97.50
2017-10-23T11:57:23.330Z,98.60
2017-10-23T11:59:54.540Z,98.60
2017-10-23T12:02:24.564Z,98.30
2017-10-23T12:04:54.877Z,97.70
2017-10-23T12:07:24.909Z,98.00
2017-10-23T12:09:55.025Z,98.50
2017-10-23T12:12:25.360Z,98.20
2017-10-23T12:14:55.413Z,97.70
2017-10-23T12:20:30.793Z,99.70
2017-10-23T12:23:01.869Z,99.70
2017-10-23T12:25:31.892Z,99.70
2017-10-23T12:28:01.934Z,99.90
2017-10-23T12:30:32.260Z,99.90
2017-10-23T12:33:02.312Z,99.90
2017-10-23T12:35:32.496Z,99.90
2017-10-23T12:38:03.204Z,99.40
2017-10-23T12:40:33.339Z,97.00
2017-10-23T12:43:04.188Z,98.90
2017-10-23T12:45:34.375Z,98.90
2017-10-23T12:48:04.413Z,99.80
2017-10-23T12:50:34.744Z,99.90
2017-10-23T12:53:04.930Z,99.60
2017-10-23T12:55:35.387Z,98.10
2017-10-23T12:58:06.551Z,99.20
2017-10-23T13:00:36.836Z,98.80
2017-10-23T13:03:06.880Z,98.60
2017-10-23T13:05:37.188Z,99.20
2017-10-23T13:08:07.221Z,98.30
2017-10-23T13:10:37.507Z,99.30
2017-10-23T13:13:08.180Z,98.40
2017-10-23T13:15:38.357Z,98.90
2017-10-23T13:18:08.470Z,98.90
2017-10-23T13:20:39.646Z,99.80
2017-10-23T13:23:09.827Z,99.80
2017-10-23T13:25:39.997Z,99.30
2017-10-23T13:28:11.506Z,99.20
2017-10-23T13:30:42.131Z,99.20
2017-10-23T13:33:12.248Z,99.00
2017-10-23T13:35:43.415Z,98.10
2017-10-23T13:38:13.477Z,98.10
2017-10-23T13:40:43.567Z,98.60
2017-10-23T13:43:14.089Z,98.60
2017-10-23T13:45:44.615Z,98.70
2017-10-23T13:48:14.753Z,98.80
2017-10-23T13:50:45.409Z,99.90
2017-10-23T13:53:15.470Z,99.20
2017-10-23T13:55:45.605Z,97.60
2017-10-23T13:58:16.007Z,99.40
2017-10-23T14:00:46.673Z,99.10
2017-10-23T14:03:16.759Z,98.50
2017-10-23T14:05:47.185Z,98.60
2017-10-23T14:08:17.992Z,99.00
2017-10-23T14:10:48.469Z,99.00
2017-10-23T14:13:18.525Z,99.10
2017-10-23T14:15:48.612Z,98.10
2017-10-23T14:18:18.986Z,96.70
2017-10-23T14:20:49.285Z,96.40
2017-10-23T14:23:19.608Z,95.90
2017-10-23T14:25:49.916Z,97.00
2017-10-23T14:28:20.065Z,98.60
2017-10-23T14:30:50.519Z,98.00
2017-10-23T14:33:20.896Z,97.90
2017-10-23T14:35:51.172Z,98.40
2017-10-23T14:38:21.293Z,97.10
2017-10-23T14:40:51.877Z,97.00
2017-10-23T14:43:22.081Z,97.20
2017-10-23T14:45:52.202Z,97.10
2017-10-23T14:48:22.705Z,96.60
2017-10-23T14:50:52.941Z,97.20
2017-10-23T14:53:23.192Z,96.00
2017-10-23T14:55:57.332Z,96.00
2017-10-23T14:58:30.542Z,97.60
2017-10-23T15:01:02.772Z,97.30
2017-10-23T15:03:33.247Z,97.40
2017-10-23T15:06:03.659Z,98.90
2017-10-23T15:08:34.036Z,99.90
2017-10-23T15:11:04.089Z,99.90
2017-10-23T15:13:35.080Z,99.90
2017-10-23T15:16:05.191Z,99.90
2017-10-23T15:18:35.259Z,99.90
2017-10-23T15:21:06.156Z,99.90
2017-10-23T15:23:36.419Z,99.90
2017-10-23T15:26:07.319Z,99.90
2017-10-23T15:28:37.773Z,99.90
2017-10-23T15:31:07.808Z,99.90
2017-10-23T15:33:38.068Z,99.90
2017-10-23T15:36:08.182Z,99.90
2017-10-23T15:38:38.213Z,99.90
2017-10-23T15:41:08.338Z,99.90
2017-10-23T15:43:38.693Z,99.90
2017-10-23T15:46:08.767Z,99.90
2017-10-23T15:48:39.256Z,99.90
2017-10-23T15:51:09.571Z,99.90
2017-10-23T15:53:39.725Z,99.90
2017-10-23T15:56:09.777Z,99.90
2017-10-23T15:58:39.879Z,99.90
2017-10-23T16:01:10.351Z,99.90
2017-10-23T16:03:40.383Z,99.90
